Terminal Aerodrome Forecast
Issued by NWS Memphis, TN

Home | Current Version | Previous Version | Text Only | Print | Product List | Glossary On
Versions: 1 2 3 4 5 6 7 8 9 10 11 12 13 14 15 16 17 18 19 20 21 22 23 24 25
169
FTUS44 KMEG 160301 AAA
TAFMEM
TAF AMD
KMEM 160301Z 1603/1706 20007KT P6SM FEW250
     FM161700 20010G16KT P6SM SCT250
     FM170000 18006KT P6SM BKN200=

USA.gov is the U.S. government's official web portal to all federal, state and local government web resources and services.